createdAt,value
2022-08-20T00:02:13.244Z,29.71
2022-08-20T00:05:02.695Z,29.78
2022-08-20T00:07:52.736Z,29.86
2022-08-20T00:10:43.977Z,29.87
2022-08-20T00:13:41.844Z,29.99
2022-08-20T00:16:36.054Z,30.06
2022-08-20T00:19:28.600Z,30.11
2022-08-20T00:22:18.306Z,30.17
2022-08-20T00:25:09.663Z,30.21
2022-08-20T00:28:00.288Z,30.28
2022-08-20T00:30:50.189Z,30.32
2022-08-20T00:33:42.146Z,30.38
2022-08-20T00:36:32.330Z,30.43
2022-08-20T00:39:22.488Z,30.50
2022-08-20T00:42:12.736Z,30.61
2022-08-20T00:45:02.884Z,30.67
2022-08-20T00:47:52.665Z,30.73
2022-08-20T00:50:42.565Z,30.82
2022-08-20T00:53:33.105Z,30.87
2022-08-20T00:56:22.947Z,30.96
2022-08-20T00:59:17.850Z,30.98
2022-08-20T01:02:11.919Z,31.05
2022-08-20T01:05:00.993Z,31.15
2022-08-20T01:07:50.657Z,31.22
2022-08-20T01:10:47.078Z,31.25
2022-08-20T01:13:41.555Z,31.30
2022-08-20T01:16:33.071Z,31.37
2022-08-20T01:19:31.415Z,31.34
2022-08-20T01:23:14.487Z,31.34
2022-08-20T01:26:29.456Z,31.40
2022-08-20T01:29:26.134Z,31.45
2022-08-20T01:32:15.465Z,31.53
2022-08-20T01:35:06.975Z,31.55
2022-08-20T01:37:56.683Z,31.55
2022-08-20T01:41:28.902Z,31.57
2022-08-20T01:44:19.729Z,31.54
2022-08-20T01:47:22.563Z,31.55
2022-08-20T01:50:20.048Z,31.52
2022-08-20T01:53:31.628Z,31.59
2022-08-20T01:56:27.128Z,31.57
2022-08-20T01:59:17.758Z,31.58
2022-08-20T02:02:08.412Z,31.57
2022-08-20T02:05:02.206Z,31.59
2022-08-20T02:07:52.009Z,31.57
2022-08-20T02:10:42.229Z,31.59
2022-08-20T02:13:32.194Z,31.59
2022-08-20T02:16:30.677Z,31.61
2022-08-20T02:19:36.026Z,31.61
2022-08-20T02:22:50.163Z,31.68
2022-08-20T02:25:41.976Z,31.63
2022-08-20T02:28:31.544Z,31.64
2022-08-20T02:31:22.576Z,31.62
2022-08-20T02:34:22.414Z,31.68
2022-08-20T02:37:17.731Z,31.72
2022-08-20T02:40:09.486Z,31.75
2022-08-20T02:43:00.938Z,31.74
2022-08-20T02:45:50.906Z,31.78
2022-08-20T02:48:41.758Z,31.76
2022-08-20T02:51:31.891Z,31.79
2022-08-20T02:54:21.626Z,31.88
2022-08-20T02:57:16.135Z,32.00
2022-08-20T03:00:13.341Z,32.07
2022-08-20T03:03:03.842Z,32.18
2022-08-20T03:05:55.941Z,32.19
2022-08-20T03:08:46.702Z,32.20
2022-08-20T03:11:38.400Z,32.24
2022-08-20T03:14:29.850Z,32.31
2022-08-20T03:17:22.115Z,32.37
2022-08-20T03:20:12.670Z,32.45
2022-08-20T03:23:02.757Z,32.44
2022-08-20T03:25:52.565Z,32.49
2022-08-20T03:28:43.021Z,32.61
2022-08-20T03:31:32.464Z,32.65
2022-08-20T03:34:22.435Z,32.81
2022-08-20T03:37:13.035Z,32.98
2022-08-20T03:40:03.955Z,32.97
2022-08-20T03:42:54.137Z,33.03
2022-08-20T03:45:46.106Z,33.06
2022-08-20T03:48:37.173Z,33.05
2022-08-20T03:51:27.366Z,33.11
2022-08-20T03:54:17.106Z,33.11
2022-08-20T03:57:12.474Z,33.16
2022-08-20T04:00:03.507Z,33.18
2022-08-20T04:03:02.140Z,33.01
2022-08-20T04:05:53.244Z,32.88
2022-08-20T04:08:43.811Z,32.87
2022-08-20T04:11:34.855Z,32.94
2022-08-20T04:14:25.008Z,33.02
2022-08-20T04:17:20.877Z,33.15
2022-08-20T04:20:14.857Z,33.18
2022-08-20T04:23:05.494Z,33.20
2022-08-20T04:25:56.478Z,33.33
2022-08-20T04:28:47.196Z,33.41
2022-08-20T04:31:36.941Z,33.37
2022-08-20T04:34:27.581Z,33.38
2022-08-20T04:37:20.516Z,33.38
2022-08-20T04:40:32.729Z,33.31
2022-08-20T04:43:25.829Z,33.25
2022-08-20T04:46:15.985Z,33.17
2022-08-20T04:49:08.155Z,33.08
2022-08-20T04:51:58.108Z,33.02
2022-08-20T04:54:49.013Z,32.97
2022-08-20T04:57:39.869Z,32.95
2022-08-20T05:00:30.346Z,32.87
2022-08-20T05:03:21.062Z,32.84
2022-08-20T05:06:12.664Z,32.77
2022-08-20T05:09:03.300Z,32.72
2022-08-20T05:11:52.688Z,32.65
2022-08-20T05:14:42.151Z,32.60
2022-08-20T05:17:32.045Z,32.54
2022-08-20T05:20:22.059Z,32.50
2022-08-20T05:23:13.975Z,32.45
2022-08-20T05:26:08.849Z,32.40
2022-08-20T05:28:59.475Z,32.32
2022-08-20T05:31:49.866Z,32.17
2022-08-20T05:34:39.981Z,32.07
2022-08-20T05:37:32.863Z,31.92
2022-08-20T05:40:24.331Z,31.82
2022-08-20T05:43:15.214Z,31.72
2022-08-20T05:46:04.326Z,31.62
2022-08-20T05:48:54.578Z,31.47
2022-08-20T05:51:44.637Z,31.32
2022-08-20T05:54:35.434Z,31.24
2022-08-20T05:57:26.032Z,31.15
2022-08-20T06:00:16.860Z,31.06
2022-08-20T06:03:25.942Z,31.00
2022-08-20T06:06:32.208Z,30.94
2022-08-20T06:09:27.982Z,30.92
2022-08-20T06:12:24.452Z,30.97
2022-08-20T06:15:14.598Z,30.93
2022-08-20T06:18:27.999Z,30.94
2022-08-20T06:21:19.222Z,30.96
2022-08-20T06:24:11.109Z,30.93
2022-08-20T06:27:03.160Z,30.95
2022-08-20T06:29:52.930Z,30.91
2022-08-20T06:32:42.596Z,30.90
2022-08-20T06:35:32.223Z,30.93
2022-08-20T06:38:22.969Z,30.91
2022-08-20T06:41:12.507Z,30.94
2022-08-20T06:44:05.983Z,30.93
2022-08-20T06:46:57.650Z,30.96
2022-08-20T06:49:48.942Z,30.94
2022-08-20T06:52:52.730Z,30.98
2022-08-20T06:55:48.102Z,31.02
2022-08-20T06:58:39.146Z,31.03
2022-08-20T07:01:28.697Z,31.04
2022-08-20T07:04:18.392Z,31.08
2022-08-20T07:07:08.641Z,31.08
2022-08-20T07:10:07.668Z,31.16
2022-08-20T07:12:58.368Z,31.17
2022-08-20T07:15:48.117Z,31.17
2022-08-20T07:18:42.851Z,31.16
2022-08-20T07:21:32.112Z,31.16
2022-08-20T07:24:22.311Z,31.14
2022-08-20T07:27:12.277Z,31.15
2022-08-20T07:30:20.235Z,31.15
2022-08-20T07:33:12.643Z,31.18
2022-08-20T07:36:05.641Z,31.16
2022-08-20T07:38:56.970Z,31.16
2022-08-20T07:42:04.189Z,31.17
2022-08-20T07:44:54.207Z,31.15
2022-08-20T07:47:45.500Z,31.16
2022-08-20T07:50:37.891Z,31.13
2022-08-20T07:53:32.292Z,31.14
2022-08-20T07:56:25.998Z,31.12
2022-08-20T07:59:20.103Z,31.15
2022-08-20T08:02:09.786Z,31.15
2022-08-20T08:05:01.011Z,31.18
2022-08-20T08:07:50.979Z,31.17
2022-08-20T08:10:43.377Z,31.18
2022-08-20T08:13:48.948Z,31.18
2022-08-20T08:16:39.416Z,31.18
2022-08-20T08:19:37.615Z,31.19
2022-08-20T08:22:27.472Z,31.23
2022-08-20T08:25:18.479Z,31.25
2022-08-20T08:28:08.155Z,31.21
2022-08-20T08:31:01.079Z,31.11
2022-08-20T08:33:51.534Z,31.10
2022-08-20T08:36:41.905Z,31.08
2022-08-20T08:39:35.130Z,31.10
2022-08-20T08:42:33.853Z,31.13
2022-08-20T08:45:23.790Z,31.12
2022-08-20T08:48:18.404Z,31.16
2022-08-20T08:51:14.046Z,31.18
2022-08-20T08:54:06.964Z,31.18
2022-08-20T08:56:57.818Z,31.17
2022-08-20T09:00:04.433Z,31.18
2022-08-20T09:03:03.515Z,31.17
2022-08-20T09:06:01.179Z,31.16
2022-08-20T09:08:54.599Z,31.10
2022-08-20T09:11:54.463Z,31.09
2022-08-20T09:14:43.854Z,31.01
2022-08-20T09:17:32.958Z,31.06
2022-08-20T09:20:26.910Z,31.08
2022-08-20T09:23:16.985Z,31.19
2022-08-20T09:26:07.641Z,31.22
2022-08-20T09:28:58.121Z,31.27
2022-08-20T09:31:49.195Z,31.25
2022-08-20T09:34:45.808Z,31.21
2022-08-20T09:37:37.693Z,31.23
2022-08-20T09:40:28.378Z,31.20
2022-08-20T09:43:18.051Z,31.16
2022-08-20T09:46:08.131Z,31.16
2022-08-20T09:48:59.265Z,31.13
2022-08-20T09:51:49.160Z,31.10
2022-08-20T09:54:39.937Z,31.05
2022-08-20T09:57:37.330Z,31.02
2022-08-20T10:00:27.838Z,30.99
2022-08-20T10:03:18.280Z,30.98
2022-08-20T10:06:08.733Z,30.97
2022-08-20T10:08:58.406Z,30.81
2022-08-20T10:11:48.149Z,30.89
2022-08-20T10:14:37.894Z,30.88
2022-08-20T10:17:27.483Z,30.86
2022-08-20T10:20:19.743Z,30.88
2022-08-20T10:23:09.353Z,30.84
2022-08-20T10:26:01.778Z,30.76
2022-08-20T10:28:51.316Z,30.82
2022-08-20T10:31:41.570Z,30.84
2022-08-20T10:34:31.067Z,30.88
2022-08-20T10:37:23.467Z,30.89
2022-08-20T10:40:16.805Z,30.86
2022-08-20T10:43:06.499Z,30.81
2022-08-20T10:45:56.862Z,30.79
2022-08-20T10:48:46.963Z,30.76
2022-08-20T10:51:36.510Z,30.76
2022-08-20T10:54:26.635Z,30.73
2022-08-20T10:57:23.116Z,30.68
2022-08-20T11:00:15.959Z,30.65
2022-08-20T11:03:05.933Z,30.63
2022-08-20T11:05:55.844Z,30.63
2022-08-20T11:08:45.986Z,30.60
2022-08-20T11:11:35.917Z,30.58
2022-08-20T11:14:25.935Z,30.57
2022-08-20T11:17:20.611Z,30.55
2022-08-20T11:20:12.500Z,30.57
2022-08-20T11:23:03.657Z,30.54
2022-08-20T11:25:53.804Z,30.52
2022-08-20T11:28:44.343Z,30.52
2022-08-20T11:31:34.122Z,30.53
2022-08-20T11:34:23.612Z,30.49
2022-08-20T11:37:15.487Z,30.50
2022-08-20T11:40:06.584Z,30.49
2022-08-20T11:46:07.194Z,30.54
2022-08-20T11:48:57.870Z,30.55
2022-08-20T11:51:49.220Z,30.58
2022-08-20T11:54:41.939Z,30.55
2022-08-20T11:57:34.219Z,30.57
2022-08-20T12:00:32.172Z,30.55
2022-08-20T12:03:23.077Z,30.63
2022-08-20T12:06:12.958Z,30.74
2022-08-20T12:09:03.679Z,30.78
2022-08-20T12:11:52.828Z,30.76
2022-08-20T12:14:43.474Z,30.78
2022-08-20T12:17:34.182Z,30.78
2022-08-20T12:20:25.881Z,30.79
2022-08-20T12:23:16.428Z,30.76
2022-08-20T12:26:06.048Z,30.75
2022-08-20T12:28:58.472Z,30.82
2022-08-20T12:31:48.072Z,30.66
2022-08-20T12:34:42.162Z,30.55
2022-08-20T12:37:32.954Z,30.59
2022-08-20T12:40:31.788Z,30.55
2022-08-20T12:43:25.028Z,30.49
2022-08-20T12:46:15.086Z,30.51
2022-08-20T12:49:05.719Z,30.54
2022-08-20T12:51:56.636Z,30.53
2022-08-20T12:54:47.003Z,30.60
2022-08-20T12:57:40.263Z,30.63
2022-08-20T13:00:43.095Z,30.63
2022-08-20T13:03:33.095Z,30.60
2022-08-20T13:06:32.405Z,30.64
2022-08-20T13:09:22.368Z,30.60
2022-08-20T13:12:14.969Z,30.59
2022-08-20T13:15:04.491Z,30.57
2022-08-20T13:17:56.820Z,30.56
2022-08-20T13:20:46.769Z,30.46
2022-08-20T13:23:39.994Z,30.39
2022-08-20T13:26:29.725Z,30.38
2022-08-20T13:29:20.778Z,30.40
2022-08-20T13:32:11.999Z,30.38
2022-08-20T13:35:02.321Z,30.36
2022-08-20T13:37:52.432Z,30.33
2022-08-20T13:40:42.391Z,30.34
2022-08-20T13:43:32.636Z,30.39
2022-08-20T13:46:23.600Z,30.44
2022-08-20T13:49:13.851Z,30.55
2022-08-20T13:52:04.853Z,30.54
2022-08-20T13:54:55.073Z,30.59
2022-08-20T13:57:45.475Z,30.54
2022-08-20T14:00:36.179Z,30.56
2022-08-20T14:03:26.089Z,30.57
2022-08-20T14:06:17.367Z,30.54
2022-08-20T14:09:07.496Z,30.54
2022-08-20T14:11:56.537Z,30.56
2022-08-20T14:14:46.718Z,30.50
2022-08-20T14:17:42.004Z,30.49
2022-08-20T14:20:33.642Z,30.52
2022-08-20T14:23:23.641Z,30.50
2022-08-20T14:26:13.672Z,30.49
2022-08-20T14:29:04.623Z,30.44
2022-08-20T14:31:57.641Z,30.38
2022-08-20T14:34:47.399Z,30.28
2022-08-20T14:37:59.071Z,30.27
2022-08-20T14:40:51.517Z,30.24
2022-08-20T14:43:40.761Z,30.22
2022-08-20T14:46:30.274Z,30.13
2022-08-20T14:49:20.606Z,30.14
2022-08-20T14:52:10.962Z,30.09
2022-08-20T14:55:02.686Z,30.07
2022-08-20T14:57:53.149Z,30.04
2022-08-20T15:00:43.356Z,29.99
2022-08-20T15:03:33.251Z,29.96
2022-08-20T15:06:23.491Z,29.92
2022-08-20T15:09:15.148Z,29.89
2022-08-20T15:12:05.546Z,29.88
2022-08-20T15:14:54.899Z,29.84
2022-08-20T15:17:54.969Z,29.81
2022-08-20T15:20:44.841Z,29.78
2022-08-20T15:23:34.493Z,29.67
2022-08-20T15:26:24.039Z,29.66
2022-08-20T15:29:18.397Z,29.61
2022-08-20T15:32:13.337Z,29.60
2022-08-20T15:35:02.936Z,29.53
2022-08-20T15:37:54.702Z,29.53
2022-08-20T15:40:44.382Z,29.51
2022-08-20T15:43:34.468Z,29.50
2022-08-20T15:46:27.769Z,29.48
2022-08-20T15:49:20.173Z,29.45
2022-08-20T15:52:09.920Z,29.45
2022-08-20T15:54:59.603Z,29.44
2022-08-20T15:58:17.890Z,29.45
2022-08-20T16:01:33.716Z,29.43
2022-08-20T16:05:00.528Z,29.43
2022-08-20T16:08:05.357Z,29.41
2022-08-20T16:11:06.457Z,29.28
2022-08-20T16:14:15.620Z,29.16
2022-08-20T16:17:15.987Z,29.03
2022-08-20T16:20:15.781Z,28.94
2022-08-20T16:23:05.936Z,28.91
2022-08-20T16:26:01.208Z,28.85
2022-08-20T16:29:13.780Z,28.85
2022-08-20T16:32:30.018Z,28.80
2022-08-20T16:35:29.584Z,28.79
2022-08-20T16:38:43.036Z,28.79
2022-08-20T16:41:41.684Z,28.74
2022-08-20T16:44:49.285Z,28.74
2022-08-20T16:47:42.073Z,28.69
2022-08-20T16:50:33.697Z,28.68
2022-08-20T16:53:25.082Z,28.76
2022-08-20T16:56:14.743Z,28.72
2022-08-20T16:59:07.721Z,28.65
2022-08-20T17:02:10.857Z,28.64
2022-08-20T17:05:06.543Z,28.66
2022-08-20T17:08:08.434Z,28.68
2022-08-20T17:11:02.631Z,28.68
2022-08-20T17:13:55.235Z,28.67
2022-08-20T17:16:51.293Z,28.70
2022-08-20T17:19:40.596Z,28.66
2022-08-20T17:22:32.455Z,28.65
2022-08-20T17:25:32.588Z,28.70
2022-08-20T17:28:31.998Z,28.65
2022-08-20T17:31:43.415Z,28.66
2022-08-20T17:34:45.733Z,28.65
2022-08-20T17:37:40.701Z,28.62
2022-08-20T17:40:41.417Z,28.62
2022-08-20T17:43:33.795Z,28.59
2022-08-20T17:46:24.161Z,28.55
2022-08-20T17:49:19.817Z,28.59
2022-08-20T17:52:18.717Z,28.51
2022-08-20T17:55:09.577Z,28.51
2022-08-20T17:58:02.243Z,28.51
2022-08-20T18:00:51.644Z,28.54
2022-08-20T18:03:41.744Z,28.52
2022-08-20T18:06:40.913Z,28.52
2022-08-20T18:10:03.730Z,28.52
2022-08-20T18:13:05.348Z,28.52
2022-08-20T18:16:00.002Z,28.49
2022-08-20T18:18:56.927Z,28.46
2022-08-20T18:22:05.897Z,28.47
2022-08-20T18:24:59.224Z,28.46
2022-08-20T18:27:50.731Z,28.45
2022-08-20T18:30:50.737Z,28.47
2022-08-20T18:33:45.262Z,28.40
2022-08-20T18:36:36.315Z,28.40
2022-08-20T18:39:31.171Z,28.43
2022-08-20T18:42:39.713Z,28.44
2022-08-20T18:45:38.247Z,28.40
2022-08-20T18:48:27.792Z,28.42
2022-08-20T18:51:17.625Z,28.36
2022-08-20T18:54:08.108Z,28.38
2022-08-20T18:57:06.525Z,28.37
2022-08-20T19:00:12.962Z,28.40
2022-08-20T19:03:35.924Z,28.39
2022-08-20T19:06:35.466Z,28.37
2022-08-20T19:09:37.540Z,28.33
2022-08-20T19:13:18.904Z,28.39
2022-08-20T19:16:12.212Z,28.34
2022-08-20T19:19:02.102Z,28.31
2022-08-20T19:21:53.210Z,28.31
2022-08-20T19:24:45.723Z,28.31
2022-08-20T19:27:35.299Z,28.31
2022-08-20T19:30:39.697Z,28.29
2022-08-20T19:33:32.752Z,28.28
2022-08-20T19:36:35.010Z,28.25
2022-08-20T19:39:25.823Z,28.29
2022-08-20T19:42:29.729Z,28.27
2022-08-20T19:45:39.285Z,28.27
2022-08-20T19:48:50.047Z,28.21
2022-08-20T19:51:58.040Z,28.23
2022-08-20T19:55:03.347Z,28.22
2022-08-20T19:57:56.554Z,28.21
2022-08-20T20:00:50.152Z,28.19
2022-08-20T20:03:40.103Z,28.18
2022-08-20T20:06:31.624Z,28.18
2022-08-20T20:09:28.465Z,28.20
2022-08-20T20:12:22.807Z,28.17
2022-08-20T20:15:12.985Z,28.17
2022-08-20T20:18:02.460Z,28.17
2022-08-20T20:20:58.404Z,28.18
2022-08-20T20:23:59.068Z,28.20
2022-08-20T20:26:50.127Z,28.18
2022-08-20T20:29:39.719Z,28.15
2022-08-20T20:32:30.168Z,28.16
2022-08-20T20:35:36.428Z,28.14
2022-08-20T20:38:28.881Z,28.11
2022-08-20T20:41:27.028Z,28.13
2022-08-20T20:44:23.905Z,28.10
2022-08-20T20:47:35.905Z,28.11
2022-08-20T20:50:35.960Z,28.10
2022-08-20T20:53:51.196Z,28.11
2022-08-20T20:56:44.738Z,28.10
2022-08-20T20:59:37.372Z,28.10
2022-08-20T21:02:26.689Z,28.09
2022-08-20T21:05:17.893Z,28.09
2022-08-20T21:08:10.510Z,28.10
2022-08-20T21:11:00.353Z,28.10
2022-08-20T21:13:50.123Z,28.09
2022-08-20T21:16:39.858Z,28.07
2022-08-20T21:19:30.302Z,28.07
2022-08-20T21:22:22.729Z,28.04
2022-08-20T21:25:12.661Z,28.02
2022-08-20T21:28:03.018Z,28.01
2022-08-20T21:30:58.417Z,28.04
2022-08-20T21:33:48.223Z,28.00
2022-08-20T21:36:37.481Z,27.98
2022-08-20T21:39:27.429Z,28.03
2022-08-20T21:42:28.956Z,28.01
2022-08-20T21:45:20.004Z,28.02
2022-08-20T21:48:09.235Z,28.00
2022-08-20T21:50:58.878Z,28.02
2022-08-20T21:53:48.459Z,27.98
2022-08-20T21:56:39.036Z,27.98
2022-08-20T21:59:28.479Z,27.96
2022-08-20T22:02:19.439Z,27.97
2022-08-20T22:05:09.191Z,27.97
2022-08-20T22:07:58.839Z,27.97
2022-08-20T22:10:48.879Z,27.95
2022-08-20T22:13:39.632Z,27.96
2022-08-20T22:16:29.223Z,27.95
2022-08-20T22:19:18.975Z,27.93
2022-08-20T22:22:12.045Z,27.92
2022-08-20T22:25:05.115Z,27.94
2022-08-20T22:27:59.869Z,27.95
2022-08-20T22:30:49.723Z,27.93
2022-08-20T22:33:40.563Z,27.95
2022-08-20T22:36:31.414Z,27.94
2022-08-20T22:39:23.522Z,27.92
2022-08-20T22:42:16.333Z,27.95
2022-08-20T22:45:14.541Z,27.96
2022-08-20T22:48:05.169Z,27.95
2022-08-20T22:50:55.613Z,27.96
2022-08-20T22:53:46.840Z,27.94
2022-08-20T22:56:36.261Z,27.96
2022-08-20T22:59:26.506Z,27.95
2022-08-20T23:02:20.349Z,27.97
2022-08-20T23:05:14.471Z,27.98
2022-08-20T23:08:04.500Z,27.97
2022-08-20T23:10:54.304Z,27.99
2022-08-20T23:13:44.256Z,28.00
2022-08-20T23:16:34.710Z,27.96
2022-08-20T23:19:25.084Z,28.04
2022-08-20T23:22:15.028Z,28.06
2022-08-20T23:25:07.218Z,28.01
2022-08-20T23:28:04.227Z,28.03
2022-08-20T23:30:54.567Z,28.07
2022-08-20T23:33:44.945Z,28.11
2022-08-20T23:36:35.393Z,28.15
2022-08-20T23:39:26.012Z,28.20
2022-08-20T23:42:16.442Z,28.14
2022-08-20T23:45:07.297Z,28.28
2022-08-20T23:47:57.160Z,28.39
2022-08-20T23:50:46.736Z,28.48
2022-08-20T23:53:39.197Z,28.58
2022-08-20T23:56:28.664Z,28.58
2022-08-20T23:59:17.775Z,28.63
